createdAt,value
2018-07-20T00:03:31.489Z,1009.3
2018-07-20T00:08:44.321Z,1009.3
2018-07-20T00:13:57.046Z,1009.3
2018-07-20T00:19:09.850Z,1009.3
2018-07-20T00:24:22.632Z,1009.3
2018-07-20T00:29:35.381Z,1009.3
2018-07-20T00:34:48.212Z,1009.2
2018-07-20T00:40:01.160Z,1009.1
2018-07-20T00:45:14.109Z,1009
2018-07-20T00:50:26.858Z,1009
2018-07-20T00:55:39.523Z,1008.9
2018-07-20T01:00:52.586Z,1008.9
2018-07-20T01:06:05.187Z,1008.8
2018-07-20T01:16:30.846Z,1008.8
2018-07-20T01:21:44.096Z,1008.8
2018-07-20T01:26:56.790Z,1008.7
2018-07-20T01:32:09.353Z,1008.7
2018-07-20T01:37:22.264Z,1008.8
2018-07-20T01:42:35.155Z,1008.8
2018-07-20T01:47:47.864Z,1008.7
2018-07-20T01:53:00.657Z,1008.7
2018-07-20T01:58:13.554Z,1008.7
2018-07-20T02:03:26.423Z,1008.8
2018-07-20T02:19:04.823Z,1008.7
2018-07-20T02:24:17.904Z,1008.6
2018-07-20T02:29:30.482Z,1008.6
2018-07-20T02:50:21.855Z,1008.4
2018-07-20T03:00:47.525Z,1008.4
2018-07-20T03:11:13.123Z,1008.4
2018-07-20T03:16:26.004Z,1008.4
2018-07-20T03:21:39.085Z,1008.4
2018-07-20T03:32:04.459Z,1008.3
2018-07-20T03:47:43.111Z,1008.3
2018-07-20T03:52:55.801Z,1008.2
2018-07-20T03:58:08.628Z,1008.1
2018-07-20T04:03:21.422Z,1008.1
2018-07-20T04:08:34.301Z,1008.2
2018-07-20T04:13:47.085Z,1008.2
2018-07-20T04:18:59.953Z,1008.1
2018-07-20T04:24:13.051Z,1008.1
2018-07-20T04:29:25.737Z,1008.2
2018-07-20T04:34:38.405Z,1008.1
2018-07-20T04:39:51.234Z,1008
2018-07-20T04:45:04.071Z,1008
2018-07-20T04:50:16.889Z,1008.1
2018-07-20T04:55:29.744Z,1008.2
2018-07-20T05:05:55.487Z,1008.1
2018-07-20T05:11:08.249Z,1008.1
2018-07-20T05:16:21.046Z,1008.1
2018-07-20T05:21:33.881Z,1008
2018-07-20T05:26:46.747Z,1008
2018-07-20T05:31:59.708Z,1008
2018-07-20T05:37:12.390Z,1008
2018-07-20T05:47:38.082Z,1008
2018-07-20T05:52:50.900Z,1008
2018-07-20T05:58:03.723Z,1008
2018-07-20T06:08:29.370Z,1007.9
2018-07-20T06:18:55.006Z,1007.9
2018-07-20T06:29:20.680Z,1008
2018-07-20T06:34:33.505Z,1008
2018-07-20T06:39:49.017Z,1007.9
2018-07-20T06:50:12.736Z,1007.9
2018-07-20T06:55:24.818Z,1007.9
2018-07-20T07:00:37.686Z,1007.9
2018-07-20T07:11:03.319Z,1007.8
2018-07-20T07:16:16.133Z,1007.9
2018-07-20T07:21:29.154Z,1007.8
2018-07-20T07:31:54.883Z,1007.9
2018-07-20T07:37:07.564Z,1007.9
2018-07-20T07:42:20.404Z,1007.8
2018-07-20T07:47:33.096Z,1007.8
2018-07-20T07:52:46.059Z,1007.8
2018-07-20T07:57:58.943Z,1007.8
2018-07-20T08:03:11.639Z,1007.8
2018-07-20T08:08:24.754Z,1007.7
2018-07-20T08:13:37.400Z,1007.7
2018-07-20T08:18:50.139Z,1007.7
2018-07-20T08:24:02.990Z,1007.6
2018-07-20T08:29:15.853Z,1007.6
2018-07-20T08:34:28.804Z,1007.6
2018-07-20T08:39:41.515Z,1007.6
2018-07-20T08:44:54.270Z,1007.5
2018-07-20T08:50:07.076Z,1007.5
2018-07-20T08:55:20.126Z,1007.4
2018-07-20T09:00:32.703Z,1007.4
2018-07-20T09:05:45.638Z,1007.4
2018-07-20T09:10:58.498Z,1007.4
2018-07-20T09:21:24.041Z,1007.3
2018-07-20T09:26:36.855Z,1007.3
2018-07-20T09:31:49.685Z,1007.2
2018-07-20T09:37:02.637Z,1007.2
2018-07-20T09:42:15.367Z,1007.2
2018-07-20T09:47:28.258Z,1007.2
2018-07-20T09:52:41.040Z,1007.1
2018-07-20T09:57:53.856Z,1007.2
2018-07-20T10:03:06.663Z,1007.1
2018-07-20T10:08:19.752Z,1007.1
2018-07-20T10:13:32.302Z,1007.1
2018-07-20T10:18:45.304Z,1007
2018-07-20T10:23:57.960Z,1007
2018-07-20T10:29:10.964Z,1006.9
2018-07-20T10:34:23.765Z,1006.9
2018-07-20T10:39:36.461Z,1006.9
2018-07-20T10:44:49.332Z,1006.9
2018-07-20T10:50:02.231Z,1006.9
2018-07-20T11:00:27.785Z,1006.8
2018-07-20T11:05:40.612Z,1006.7
2018-07-20T11:10:53.432Z,1006.7
2018-07-20T11:16:06.636Z,1006.7
2018-07-20T11:21:19.095Z,1006.7
2018-07-20T11:26:32.017Z,1006.6
2018-07-20T11:31:45.626Z,1006.5
2018-07-20T11:36:57.591Z,1006.5
2018-07-20T11:42:10.476Z,1006.4
2018-07-20T11:47:23.336Z,1006.4
2018-07-20T11:52:36.097Z,1006.3
2018-07-20T11:57:48.878Z,1006.2
2018-07-20T12:03:01.880Z,1006.2
2018-07-20T12:08:14.534Z,1006.2
2018-07-20T12:13:27.368Z,1006.1
2018-07-20T12:18:40.275Z,1006
2018-07-20T12:23:53.107Z,1006
2018-07-20T12:29:05.866Z,1006
2018-07-20T12:34:18.698Z,1006
2018-07-20T12:39:31.573Z,1006
2018-07-20T12:44:44.382Z,1005.9
2018-07-20T12:55:10.024Z,1005.9
2018-07-20T13:00:22.813Z,1005.9
2018-07-20T13:05:35.674Z,1005.8
2018-07-20T13:10:48.608Z,1005.8
2018-07-20T13:16:01.372Z,1005.8
2018-07-20T13:21:14.350Z,1005.7
2018-07-20T13:26:26.965Z,1005.7
2018-07-20T13:31:39.796Z,1005.7
2018-07-20T13:36:52.672Z,1005.4
2018-07-20T13:42:05.476Z,1005.4
2018-07-20T13:47:18.750Z,1005.4
2018-07-20T13:52:31.094Z,1005.3
2018-07-20T13:57:44.053Z,1005.3
2018-07-20T14:08:09.577Z,1005.3
2018-07-20T14:13:22.544Z,1005.1
2018-07-20T14:34:13.836Z,1005.1
2018-07-20T14:39:26.558Z,1005.1
2018-07-20T14:49:52.297Z,1005
2018-07-20T14:55:05.089Z,1004.9
2018-07-20T15:00:18.227Z,1004.9
2018-07-20T15:10:43.600Z,1004.7
2018-07-20T15:15:56.364Z,1004.7
2018-07-20T15:26:22.381Z,1004.6
2018-07-20T15:42:00.589Z,1004.6
2018-07-20T15:52:26.163Z,1004.4
2018-07-20T16:02:51.813Z,1004.4
2018-07-20T16:34:08.851Z,1004.2
2018-07-20T16:39:21.858Z,1004.2
2018-07-20T16:44:34.465Z,1004.2
2018-07-20T16:55:00.827Z,1004.1
2018-07-20T17:00:12.945Z,1004.1
2018-07-20T17:05:25.796Z,1004
2018-07-20T17:15:51.459Z,1003.9
2018-07-20T17:21:04.307Z,1003.8
2018-07-20T17:26:17.103Z,1003.9
2018-07-20T17:41:55.655Z,1003.7
2018-07-20T17:47:08.502Z,1003.7
2018-07-20T17:57:34.099Z,1003.6
2018-07-20T18:07:59.929Z,1003.7
2018-07-20T18:13:12.587Z,1003.7
2018-07-20T18:23:38.248Z,1003.6
2018-07-20T18:28:51.113Z,1003.6
2018-07-20T18:34:03.916Z,1003.6
2018-07-20T18:39:16.903Z,1003.6
2018-07-20T18:44:29.874Z,1003.7
2018-07-20T18:49:42.409Z,1003.7
2018-07-20T18:54:55.359Z,1003.7
2018-07-20T19:00:08.074Z,1003.8
2018-07-20T19:05:20.975Z,1003.8
2018-07-20T19:10:33.746Z,1003.9
2018-07-20T19:15:46.564Z,1003.8
2018-07-20T19:20:59.387Z,1003.9
2018-07-20T19:26:12.218Z,1004
2018-07-20T19:31:25.052Z,1004.1
2018-07-20T19:52:16.384Z,1004.1
2018-07-20T20:02:42.031Z,1004.3
2018-07-20T20:07:54.889Z,1004.3
2018-07-20T20:13:07.715Z,1004.4
2018-07-20T20:18:20.710Z,1004.3
2018-07-20T20:23:33.359Z,1004.4
2018-07-20T20:28:46.273Z,1004.5
2018-07-20T20:33:59.017Z,1004.4
2018-07-20T20:44:24.733Z,1004.4
2018-07-20T20:49:37.536Z,1004.4
2018-07-20T20:54:50.343Z,1004.4
2018-07-20T21:05:16.095Z,1004.3
2018-07-20T21:10:31.494Z,1004.3
2018-07-20T21:15:41.670Z,1004.3
2018-07-20T21:20:54.508Z,1004.3
2018-07-20T21:26:07.407Z,1004.3
2018-07-20T21:31:20.204Z,1004.3
2018-07-20T21:36:33.018Z,1004.2
2018-07-20T21:41:45.804Z,1004.3
2018-07-20T21:46:58.655Z,1004.3
2018-07-20T21:52:11.521Z,1004.3
2018-07-20T21:57:24.368Z,1004.5
2018-07-20T22:02:37.152Z,1004.5
2018-07-20T22:07:50.201Z,1004.6
2018-07-20T22:13:03.595Z,1004.5
2018-07-20T22:18:17.438Z,1004.6
2018-07-20T22:28:41.359Z,1004.5
2018-07-20T22:33:54.109Z,1004.5
2018-07-20T22:39:06.948Z,1004.5
2018-07-20T22:59:58.290Z,1004.5
2018-07-20T23:05:11.092Z,1004.4
2018-07-20T23:10:23.930Z,1004.3
2018-07-20T23:15:36.780Z,1004.2
2018-07-20T23:20:49.596Z,1004.1
2018-07-20T23:26:02.439Z,1004.1
2018-07-20T23:31:15.439Z,1004
2018-07-20T23:36:28.077Z,1003.9
2018-07-20T23:41:40.948Z,1003.9
2018-07-20T23:46:53.832Z,1003.9
2018-07-20T23:52:06.585Z,1003.9
2018-07-20T23:57:19.502Z,1003.9
